createdAt,value
2018-06-20T00:00:10.996Z,468.73
2018-06-20T00:02:39.312Z,482.25
2018-06-20T00:05:07.653Z,496.65
2018-06-20T00:07:35.984Z,521.12
2018-06-20T00:10:04.506Z,504.72
2018-06-20T00:12:32.845Z,478.32
2018-06-20T00:15:01.189Z,463.33
2018-06-20T00:17:29.548Z,507.43
2018-06-20T00:19:57.872Z,515.85
2018-06-20T00:22:26.433Z,528.35
2018-06-20T00:24:54.841Z,512.95
2018-06-20T00:27:23.197Z,511.65
2018-06-20T00:29:51.531Z,514.08
2018-06-20T00:32:19.868Z,523.92
2018-06-20T00:34:48.211Z,4.03
2018-06-20T00:37:16.545Z,3.87
2018-06-20T00:39:44.852Z,4.23
2018-06-20T00:42:13.164Z,4.23
2018-06-20T00:44:41.205Z,4.10
2018-06-20T00:47:09.531Z,4.57
2018-06-20T00:49:37.870Z,4.77
2018-06-20T00:52:06.192Z,4.80
2018-06-20T00:54:34.492Z,4.43
2018-06-20T00:57:02.834Z,194.30
2018-06-20T00:59:31.148Z,587.30
2018-06-20T01:01:59.466Z,5.92
2018-06-20T01:04:27.765Z,4.50
2018-06-20T01:06:55.891Z,4.43
2018-06-20T01:09:26.012Z,5.10
2018-06-20T01:11:54.465Z,245.73
2018-06-20T01:14:22.691Z,342.87
2018-06-20T01:16:51.008Z,5.75
2018-06-20T01:19:19.329Z,213.10
2018-06-20T01:21:47.668Z,452.52
2018-06-20T01:24:15.984Z,5.72
2018-06-20T01:26:44.280Z,5.77
2018-06-20T01:29:12.621Z,323.93
2018-06-20T01:31:40.919Z,5.90
2018-06-20T01:34:09.237Z,4.17
2018-06-20T01:36:37.540Z,4.20
2018-06-20T01:39:08.288Z,4.20
2018-06-20T01:41:36.601Z,4.70
2018-06-20T01:44:05.033Z,4.03
2018-06-20T01:46:33.324Z,3.93
2018-06-20T01:49:01.636Z,5.23
2018-06-20T01:51:29.952Z,15.60
2018-06-20T01:53:58.270Z,4.87
2018-06-20T01:56:26.573Z,4.33
2018-06-20T01:58:54.892Z,4.70
2018-06-20T02:01:23.192Z,4.30
2018-06-20T02:03:51.534Z,4.17
2018-06-20T02:06:19.832Z,4.23
2018-06-20T02:08:49.140Z,5.50
2018-06-20T02:11:17.444Z,5.80
2018-06-20T02:13:45.758Z,5.57
2018-06-20T02:16:14.072Z,6.30
2018-06-20T02:18:42.392Z,6.53
2018-06-20T02:21:10.697Z,6.40
2018-06-20T02:23:39.028Z,7.70
2018-06-20T02:26:07.332Z,8.67
2018-06-20T02:28:35.661Z,9.00
2018-06-20T02:31:03.964Z,10.23
2018-06-20T02:33:32.297Z,9.87
2018-06-20T02:36:04.809Z,8.90
2018-06-20T02:38:33.141Z,9.40
2018-06-20T02:41:01.458Z,9.30
2018-06-20T02:43:29.765Z,10.40
2018-06-20T02:45:58.097Z,8.87
2018-06-20T02:48:27.416Z,7.77
2018-06-20T02:50:55.734Z,8.00
2018-06-20T02:53:24.041Z,7.43
2018-06-20T02:55:52.361Z,5.60
2018-06-20T02:58:20.665Z,5.37
2018-06-20T03:00:48.983Z,6.40
2018-06-20T03:03:17.387Z,5.43
2018-06-20T03:05:45.716Z,4.67
2018-06-20T03:08:14.039Z,5.60
2018-06-20T03:10:42.380Z,6.60
2018-06-20T03:13:10.723Z,6.53
2018-06-20T03:15:39.057Z,5.23
2018-06-20T03:18:07.361Z,4.70
2018-06-20T03:20:35.684Z,5.40
2018-06-20T03:23:03.988Z,5.57
2018-06-20T03:25:32.299Z,5.37
2018-06-20T03:28:00.609Z,5.17
2018-06-20T03:30:28.965Z,4.57
2018-06-20T03:32:57.275Z,5.67
2018-06-20T03:35:25.609Z,5.67
2018-06-20T03:37:53.912Z,5.27
2018-06-20T03:40:22.232Z,5.47
2018-06-20T03:42:50.546Z,5.77
2018-06-20T03:45:18.873Z,6.20
2018-06-20T03:47:47.169Z,5.60
2018-06-20T03:50:15.489Z,5.07
2018-06-20T03:52:43.787Z,5.93
2018-06-20T03:55:12.131Z,6.17
2018-06-20T03:57:40.428Z,4.70
2018-06-20T04:00:08.780Z,5.87
2018-06-20T04:02:37.080Z,5.77
2018-06-20T04:05:05.135Z,5.93
2018-06-20T04:07:33.465Z,6.53
2018-06-20T04:10:01.780Z,5.93
2018-06-20T04:12:30.112Z,5.27
2018-06-20T04:14:58.422Z,5.33
2018-06-20T04:17:26.499Z,6.53
2018-06-20T04:19:54.804Z,5.43
2018-06-20T04:22:23.116Z,6.93
2018-06-20T04:24:51.419Z,6.50
2018-06-20T04:27:19.744Z,8.03
2018-06-20T04:29:48.044Z,6.50
2018-06-20T04:32:16.357Z,8.10
2018-06-20T04:34:44.719Z,8.43
2018-06-20T04:37:13.012Z,9.30
2018-06-20T04:39:41.321Z,7.20
2018-06-20T04:42:09.645Z,7.63
2018-06-20T04:44:37.997Z,6.37
2018-06-20T04:47:06.348Z,7.47
2018-06-20T04:49:34.656Z,5.43
2018-06-20T04:52:02.978Z,6.13
2018-06-20T04:54:31.373Z,9.43
2018-06-20T04:56:59.695Z,10.20
2018-06-20T04:59:28.013Z,7.80
2018-06-20T05:01:56.312Z,11.10
2018-06-20T05:04:24.623Z,9.70
2018-06-20T05:06:52.942Z,11.27
2018-06-20T05:09:21.272Z,11.60
2018-06-20T05:11:50.829Z,10.97
2018-06-20T05:14:19.811Z,11.93
2018-06-20T05:16:48.169Z,11.20
2018-06-20T05:19:16.499Z,11.20
2018-06-20T05:21:44.800Z,11.30
2018-06-20T05:24:13.128Z,10.47
2018-06-20T05:26:41.440Z,11.00
2018-06-20T05:29:09.773Z,10.03
2018-06-20T05:31:38.077Z,10.93
2018-06-20T05:34:06.391Z,9.80
2018-06-20T05:36:34.697Z,10.47
2018-06-20T05:39:06.472Z,10.03
2018-06-20T05:41:34.772Z,8.17
2018-06-20T05:44:03.099Z,6.40
2018-06-20T05:46:31.581Z,6.60
2018-06-20T05:49:00.066Z,6.70
2018-06-20T05:51:28.493Z,7.37
2018-06-20T05:53:56.844Z,6.80
2018-06-20T05:56:25.132Z,7.83
2018-06-20T05:58:53.447Z,7.23
2018-06-20T06:01:21.748Z,7.23
2018-06-20T06:03:50.091Z,6.70
2018-06-20T06:06:18.398Z,7.40
2018-06-20T06:08:46.900Z,6.90
2018-06-20T06:11:14.944Z,8.10
2018-06-20T06:13:43.270Z,7.43
2018-06-20T06:16:11.568Z,6.77
2018-06-20T06:18:39.885Z,7.50
2018-06-20T06:21:08.176Z,8.37
2018-06-20T06:23:36.497Z,8.20
2018-06-20T06:26:04.812Z,7.80
2018-06-20T06:28:33.166Z,8.00
2018-06-20T06:31:01.456Z,7.60
2018-06-20T06:33:31.931Z,7.57
2018-06-20T06:36:01.465Z,8.97
2018-06-20T06:38:31.092Z,7.30
2018-06-20T06:40:59.393Z,8.40
2018-06-20T06:43:27.736Z,8.20
2018-06-20T06:45:56.037Z,7.67
2018-06-20T06:48:24.597Z,8.67
2018-06-20T06:50:52.912Z,6.77
2018-06-20T06:53:21.208Z,6.80
2018-06-20T06:55:50.210Z,8.67
2018-06-20T06:58:18.713Z,6.27
2018-06-20T07:00:47.073Z,5.70
2018-06-20T07:03:15.372Z,5.80
2018-06-20T07:05:43.717Z,6.73
2018-06-20T07:08:12.013Z,5.60
2018-06-20T07:10:40.348Z,6.17
2018-06-20T07:13:08.754Z,5.80
2018-06-20T07:15:37.120Z,5.90
2018-06-20T07:18:05.476Z,5.50
2018-06-20T07:20:33.797Z,6.47
2018-06-20T07:23:02.094Z,5.20
2018-06-20T07:25:30.440Z,6.03
2018-06-20T07:27:58.742Z,4.50
2018-06-20T07:30:27.052Z,5.30
2018-06-20T07:32:55.345Z,5.33
2018-06-20T07:35:23.674Z,5.00
2018-06-20T07:37:51.981Z,5.00
2018-06-20T07:40:20.309Z,5.70
2018-06-20T07:42:48.680Z,5.13
2018-06-20T07:45:16.998Z,4.97
2018-06-20T07:47:45.315Z,4.40
2018-06-20T07:50:13.639Z,4.37
2018-06-20T07:52:41.949Z,4.33
2018-06-20T07:55:10.268Z,4.67
2018-06-20T07:57:38.571Z,4.17
2018-06-20T08:00:12.334Z,4.53
2018-06-20T08:02:57.587Z,4.17
2018-06-20T08:05:31.216Z,4.50
2018-06-20T08:08:05.065Z,4.67
2018-06-20T08:10:38.749Z,4.37
2018-06-20T08:13:12.589Z,5.17
2018-06-20T08:15:46.411Z,4.13
2018-06-20T08:18:20.103Z,3.90
2018-06-20T08:20:48.428Z,4.40
2018-06-20T08:23:16.721Z,4.30
2018-06-20T08:25:45.950Z,4.13
2018-06-20T08:28:14.237Z,3.93
2018-06-20T08:30:42.536Z,3.60
2018-06-20T08:33:10.856Z,3.30
2018-06-20T08:35:39.152Z,3.77
2018-06-20T08:38:07.464Z,3.60
2018-06-20T08:40:35.756Z,4.23
2018-06-20T08:43:04.071Z,3.50
2018-06-20T08:45:32.745Z,3.23
2018-06-20T08:48:01.316Z,3.63
2018-06-20T08:50:29.612Z,3.80
2018-06-20T08:52:57.936Z,3.70
2018-06-20T08:55:26.275Z,3.60
2018-06-20T08:57:54.344Z,3.33
2018-06-20T09:00:27.988Z,4.20
2018-06-20T09:02:56.304Z,4.30
2018-06-20T09:05:29.949Z,3.53
2018-06-20T09:08:03.624Z,3.37
2018-06-20T09:10:37.292Z,3.27
2018-06-20T09:13:10.938Z,3.63
2018-06-20T09:15:46.407Z,3.30
2018-06-20T09:19:19.116Z,4.53
2018-06-20T09:21:47.425Z,4.03
2018-06-20T09:24:15.736Z,3.43
2018-06-20T09:26:44.055Z,4.30
2018-06-20T09:29:12.369Z,3.33
2018-06-20T09:31:40.674Z,4.50
2018-06-20T09:34:09.004Z,3.50
2018-06-20T09:36:37.292Z,4.13
2018-06-20T09:39:07.244Z,3.93
2018-06-20T09:41:35.790Z,3.30
2018-06-20T09:44:04.119Z,3.50
2018-06-20T09:46:32.418Z,3.60
2018-06-20T09:49:00.737Z,3.60
2018-06-20T09:51:29.036Z,3.20
2018-06-20T09:53:57.352Z,3.30
2018-06-20T09:56:25.653Z,3.20
2018-06-20T09:58:53.978Z,3.70
2018-06-20T10:01:27.786Z,3.73
2018-06-20T10:04:01.580Z,3.07
2018-06-20T10:06:35.324Z,3.53
2018-06-20T10:09:09.212Z,4.50
2018-06-20T10:11:42.909Z,4.77
2018-06-20T10:14:13.227Z,3.83
2018-06-20T10:16:41.688Z,5.20
2018-06-20T10:19:10.005Z,4.80
2018-06-20T10:21:38.347Z,4.10
2018-06-20T10:24:06.669Z,4.20
2018-06-20T10:26:34.961Z,4.60
2018-06-20T10:29:03.278Z,4.10
2018-06-20T10:31:31.609Z,3.63
2018-06-20T10:33:59.928Z,3.90
2018-06-20T10:36:28.220Z,4.30
2018-06-20T10:38:56.275Z,3.70
2018-06-20T10:41:24.580Z,5.00
2018-06-20T10:43:52.909Z,4.00
2018-06-20T10:46:26.748Z,3.93
2018-06-20T10:48:55.114Z,3.10
2018-06-20T10:51:23.437Z,3.33
2018-06-20T10:53:51.749Z,3.40
2018-06-20T10:56:25.504Z,3.40
2018-06-20T10:58:59.192Z,3.77
2018-06-20T11:01:32.897Z,3.63
2018-06-20T11:04:06.506Z,3.80
2018-06-20T11:06:40.189Z,3.57
2018-06-20T11:09:14.644Z,4.30
2018-06-20T11:11:48.295Z,3.80
2018-06-20T11:14:16.596Z,3.53
2018-06-20T11:16:44.913Z,3.60
2018-06-20T11:19:13.296Z,3.30
2018-06-20T11:21:41.716Z,2.80
2018-06-20T11:24:10.012Z,3.03
2018-06-20T11:26:38.372Z,3.17
2018-06-20T11:29:06.668Z,3.70
2018-06-20T11:31:35.097Z,3.60
2018-06-20T11:34:03.400Z,3.10
2018-06-20T11:36:31.756Z,3.27
2018-06-20T11:39:00.107Z,3.37
2018-06-20T11:41:28.368Z,3.00
2018-06-20T11:43:56.692Z,3.30
2018-06-20T11:46:30.380Z,2.90
2018-06-20T11:48:58.772Z,3.50
2018-06-20T11:51:27.076Z,3.43
2018-06-20T11:53:55.395Z,3.37
2018-06-20T11:56:23.709Z,3.00
2018-06-20T11:59:59.008Z,2.63
2018-06-20T12:02:32.696Z,3.00
2018-06-20T12:05:06.296Z,3.10
2018-06-20T12:07:40.110Z,3.57
2018-06-20T12:10:13.957Z,2.50
2018-06-20T12:13:49.534Z,2.30
2018-06-20T12:16:24.918Z,1.90
2018-06-20T12:18:58.618Z,2.93
2018-06-20T12:21:32.343Z,3.07
2018-06-20T12:24:06.088Z,2.03
2018-06-20T12:26:39.992Z,2.97
2018-06-20T12:29:13.785Z,2.50
2018-06-20T12:31:47.577Z,2.20
2018-06-20T12:34:21.269Z,2.70
2018-06-20T12:36:54.840Z,2.33
2018-06-20T12:39:22.474Z,2.23
2018-06-20T12:41:56.367Z,2.40
2018-06-20T12:44:30.005Z,2.93
2018-06-20T12:47:02.534Z,2.50
2018-06-20T12:49:34.657Z,2.27
2018-06-20T12:52:02.961Z,1.90
2018-06-20T12:54:31.300Z,2.80
2018-06-20T12:56:59.637Z,2.77
2018-06-20T12:59:27.956Z,2.50
2018-06-20T13:01:56.260Z,2.87
2018-06-20T13:04:24.584Z,2.90
2018-06-20T13:06:53.900Z,2.90
2018-06-20T13:09:22.241Z,2.20
2018-06-20T13:11:50.536Z,2.40
2018-06-20T13:14:18.867Z,2.17
2018-06-20T13:16:47.164Z,2.33
2018-06-20T13:19:15.476Z,2.40
2018-06-20T13:21:43.788Z,2.53
2018-06-20T13:24:12.081Z,2.00
2018-06-20T13:26:40.414Z,2.63
2018-06-20T13:29:08.733Z,2.50
2018-06-20T13:31:42.524Z,2.17
2018-06-20T13:34:16.347Z,2.30
2018-06-20T13:36:50.008Z,2.40
2018-06-20T13:39:23.910Z,2.13
2018-06-20T13:41:57.639Z,2.10
2018-06-20T13:44:27.613Z,2.13
2018-06-20T13:47:01.369Z,2.30
2018-06-20T13:49:29.754Z,3.00
2018-06-20T13:51:58.137Z,2.87
2018-06-20T13:54:26.830Z,2.70
2018-06-20T13:56:55.272Z,3.30
2018-06-20T13:59:24.059Z,3.23
2018-06-20T14:01:52.451Z,3.10
2018-06-20T14:04:20.740Z,2.57
2018-06-20T14:06:49.061Z,2.70
2018-06-20T14:09:18.184Z,2.60
2018-06-20T14:11:46.488Z,2.97
2018-06-20T14:14:14.791Z,2.93
2018-06-20T14:16:43.156Z,3.10
2018-06-20T14:19:11.449Z,2.90
2018-06-20T14:21:40.867Z,2.63
2018-06-20T14:24:10.184Z,2.27
2018-06-20T14:26:39.580Z,2.90
2018-06-20T14:29:08.719Z,3.60
2018-06-20T14:31:42.329Z,2.67
2018-06-20T14:34:16.032Z,2.80
2018-06-20T14:36:49.805Z,2.60
2018-06-20T14:39:23.464Z,3.00
2018-06-20T14:41:57.068Z,2.70
2018-06-20T14:44:25.384Z,2.70
2018-06-20T14:46:53.686Z,2.47
2018-06-20T14:49:22.013Z,2.20
2018-06-20T14:51:50.319Z,2.40
2018-06-20T14:54:18.632Z,2.70
2018-06-20T14:56:46.925Z,3.10
2018-06-20T14:59:15.342Z,2.97
2018-06-20T15:01:43.644Z,2.83
2018-06-20T15:04:11.961Z,2.53
2018-06-20T15:06:40.259Z,2.50
2018-06-20T15:09:09.012Z,2.87
2018-06-20T15:11:37.877Z,3.17
2018-06-20T15:14:06.231Z,2.50
2018-06-20T15:16:39.872Z,2.50
2018-06-20T15:19:08.196Z,2.37
2018-06-20T15:21:36.496Z,2.77
2018-06-20T15:24:04.844Z,2.50
2018-06-20T15:26:38.437Z,2.23
2018-06-20T15:29:12.120Z,2.40
2018-06-20T15:31:45.796Z,2.43
2018-06-20T15:34:19.517Z,2.13
2018-06-20T15:36:53.040Z,2.30
2018-06-20T15:39:21.352Z,2.10
2018-06-20T15:41:49.652Z,2.10
2018-06-20T15:44:17.959Z,2.40
2018-06-20T15:46:46.258Z,2.47
2018-06-20T15:49:14.576Z,2.20
2018-06-20T15:51:42.871Z,2.50
2018-06-20T15:54:11.215Z,2.50
2018-06-20T15:56:39.513Z,2.30
2018-06-20T15:59:07.805Z,2.70
2018-06-20T16:01:36.117Z,2.00
2018-06-20T16:04:04.418Z,2.00
2018-06-20T16:06:32.487Z,2.07
2018-06-20T16:09:06.170Z,2.03
2018-06-20T16:11:34.488Z,2.40
2018-06-20T16:14:02.792Z,2.00
2018-06-20T16:16:31.200Z,2.13
2018-06-20T16:19:04.869Z,2.20
2018-06-20T16:21:38.548Z,2.33
2018-06-20T16:24:12.145Z,2.80
2018-06-20T16:26:45.613Z,2.33
2018-06-20T16:29:19.500Z,2.20
2018-06-20T16:31:47.842Z,2.30
2018-06-20T16:34:16.140Z,2.23
2018-06-20T16:36:44.452Z,2.70
2018-06-20T16:39:12.754Z,3.00
2018-06-20T16:41:41.063Z,2.53
2018-06-20T16:44:09.352Z,2.00
2018-06-20T16:46:37.665Z,1.93
2018-06-20T16:49:05.973Z,2.40
2018-06-20T16:51:34.284Z,2.00
2018-06-20T16:54:02.701Z,2.07
2018-06-20T16:56:31.020Z,2.20
2018-06-20T16:58:59.316Z,2.10
2018-06-20T17:01:33.073Z,1.90
2018-06-20T17:04:01.375Z,2.50
2018-06-20T17:06:29.693Z,2.00
2018-06-20T17:08:58.014Z,1.80
2018-06-20T17:11:26.331Z,2.07
2018-06-20T17:13:59.839Z,2.27
2018-06-20T17:16:33.658Z,1.73
2018-06-20T17:19:07.334Z,2.03
2018-06-20T17:21:41.002Z,2.07
2018-06-20T17:24:14.697Z,2.40
2018-06-20T17:26:43.013Z,1.90
2018-06-20T17:29:11.312Z,2.47
2018-06-20T17:31:39.652Z,2.17
2018-06-20T17:34:07.940Z,1.80
2018-06-20T17:36:36.232Z,1.90
2018-06-20T17:39:07.418Z,2.50
2018-06-20T17:41:35.725Z,1.97
2018-06-20T17:44:04.060Z,2.10
2018-06-20T17:46:32.353Z,1.77
2018-06-20T17:49:00.880Z,2.00
2018-06-20T17:51:29.186Z,2.20
2018-06-20T17:53:57.501Z,2.40
2018-06-20T17:56:25.796Z,1.97
2018-06-20T17:58:54.137Z,1.80
2018-06-20T18:01:22.436Z,1.80
2018-06-20T18:03:50.757Z,1.83
2018-06-20T18:06:24.453Z,1.90
2018-06-20T18:08:58.291Z,1.60
2018-06-20T18:11:31.985Z,1.80
2018-06-20T18:14:05.857Z,1.80
2018-06-20T18:16:39.692Z,1.67
2018-06-20T18:19:07.940Z,2.20
2018-06-20T18:21:36.228Z,2.00
2018-06-20T18:24:04.592Z,2.10
2018-06-20T18:26:32.923Z,2.07
2018-06-20T18:29:01.216Z,1.83
2018-06-20T18:31:29.520Z,1.90
2018-06-20T18:33:57.924Z,1.63
2018-06-20T18:36:26.220Z,2.00
2018-06-20T18:38:54.520Z,1.93
2018-06-20T18:41:22.933Z,2.17
2018-06-20T18:43:51.277Z,2.17
2018-06-20T18:46:19.617Z,1.70
2018-06-20T18:48:48.016Z,2.17
2018-06-20T18:51:16.367Z,2.70
2018-06-20T18:53:44.640Z,2.60
2018-06-20T18:56:12.956Z,2.03
2018-06-20T18:58:46.612Z,2.97
2018-06-20T19:01:20.226Z,2.67
2018-06-20T19:03:54.070Z,2.70
2018-06-20T19:06:27.727Z,2.80
2018-06-20T19:08:59.790Z,3.13
2018-06-20T19:11:28.109Z,2.73
2018-06-20T19:13:56.408Z,2.90
2018-06-20T19:16:24.772Z,3.10
2018-06-20T19:18:53.088Z,3.70
2018-06-20T19:21:21.422Z,3.40
2018-06-20T19:23:49.763Z,3.33
2018-06-20T19:26:18.274Z,3.40
2018-06-20T19:28:46.641Z,3.97
2018-06-20T19:31:15.180Z,4.30
2018-06-20T19:33:43.667Z,4.50
2018-06-20T19:36:12.048Z,3.93
2018-06-20T19:38:40.429Z,3.60
2018-06-20T19:41:08.844Z,3.87
2018-06-20T19:43:41.424Z,3.97
2018-06-20T19:46:09.732Z,3.50
2018-06-20T19:48:38.124Z,4.00
2018-06-20T19:51:06.452Z,3.70
2018-06-20T19:53:34.761Z,3.17
2018-06-20T19:56:03.073Z,3.57
2018-06-20T19:58:31.533Z,3.87
2018-06-20T20:00:59.828Z,3.90
2018-06-20T20:03:28.130Z,4.10
2018-06-20T20:05:56.457Z,3.40
2018-06-20T20:08:24.801Z,3.90
2018-06-20T20:10:53.280Z,3.90
2018-06-20T20:13:21.644Z,4.20
2018-06-20T20:15:50.005Z,4.10
2018-06-20T20:18:18.382Z,3.40
2018-06-20T20:20:46.703Z,3.87
2018-06-20T20:23:15.201Z,3.87
2018-06-20T20:25:43.548Z,3.80
2018-06-20T20:28:11.856Z,3.57
2018-06-20T20:30:40.169Z,3.93
2018-06-20T20:33:08.492Z,3.63
2018-06-20T20:35:36.785Z,4.00
2018-06-20T20:38:05.109Z,3.93
2018-06-20T20:40:33.409Z,4.60
2018-06-20T20:43:01.724Z,4.17
2018-06-20T20:45:30.025Z,4.03
2018-06-20T20:47:58.376Z,4.53
2018-06-20T20:50:26.676Z,4.00
2018-06-20T20:52:55.006Z,4.50
2018-06-20T20:55:23.301Z,3.87
2018-06-20T20:57:51.619Z,4.20
2018-06-20T21:00:19.908Z,5.40
2018-06-20T21:02:48.224Z,3.93
2018-06-20T21:05:16.532Z,4.20
2018-06-20T21:07:44.851Z,4.20
2018-06-20T21:10:12.917Z,5.80
2018-06-20T21:12:41.272Z,4.23
2018-06-20T21:15:09.581Z,4.30
2018-06-20T21:17:37.900Z,4.37
2018-06-20T21:20:06.189Z,5.53
2018-06-20T21:22:34.501Z,4.50
2018-06-20T21:25:02.808Z,4.30
2018-06-20T21:27:31.115Z,4.60
2018-06-20T21:29:59.424Z,4.03
2018-06-20T21:32:27.749Z,4.50
2018-06-20T21:34:56.055Z,3.90
2018-06-20T21:37:24.377Z,5.00
2018-06-20T21:39:52.685Z,4.60
2018-06-20T21:42:21.008Z,4.73
2018-06-20T21:44:49.299Z,5.60
2018-06-20T21:47:17.633Z,5.40
2018-06-20T21:49:45.948Z,5.77
2018-06-20T21:52:14.257Z,5.43
2018-06-20T21:54:42.575Z,4.80
2018-06-20T21:57:10.887Z,5.70
2018-06-20T21:59:39.213Z,4.80
2018-06-20T22:02:07.596Z,5.10
2018-06-20T22:04:35.912Z,5.17
2018-06-20T22:07:04.200Z,5.13
2018-06-20T22:09:32.566Z,5.10
2018-06-20T22:12:00.916Z,5.17
2018-06-20T22:14:29.228Z,4.50
2018-06-20T22:16:57.529Z,4.80
2018-06-20T22:19:25.849Z,5.27
2018-06-20T22:21:54.147Z,5.40
2018-06-20T22:24:22.456Z,5.70
2018-06-20T22:26:50.758Z,4.87
2018-06-20T22:29:19.072Z,4.50
2018-06-20T22:31:47.428Z,4.70
2018-06-20T22:34:15.744Z,5.73
2018-06-20T22:36:44.053Z,5.30
2018-06-20T22:39:12.367Z,5.37
2018-06-20T22:41:40.693Z,5.20
2018-06-20T22:44:09.007Z,5.57
2018-06-20T22:46:37.311Z,4.63
2018-06-20T22:49:05.825Z,4.30
2018-06-20T22:51:34.160Z,5.47
2018-06-20T22:54:02.473Z,5.63
2018-06-20T22:56:30.772Z,4.83
2018-06-20T22:58:59.513Z,5.40
2018-06-20T23:01:27.836Z,4.63
2018-06-20T23:03:56.705Z,5.33
2018-06-20T23:06:25.476Z,4.80
2018-06-20T23:08:53.816Z,4.87
2018-06-20T23:11:22.210Z,5.50
2018-06-20T23:13:50.973Z,5.07
2018-06-20T23:16:19.296Z,5.17
2018-06-20T23:18:47.654Z,5.57
2018-06-20T23:21:16.152Z,5.27
2018-06-20T23:23:44.451Z,5.67
2018-06-20T23:26:12.773Z,4.93
2018-06-20T23:28:41.089Z,5.23
2018-06-20T23:31:09.433Z,5.20
2018-06-20T23:33:37.732Z,5.20
2018-06-20T23:36:06.052Z,5.50
2018-06-20T23:38:34.365Z,5.40
2018-06-20T23:41:02.686Z,5.80
2018-06-20T23:43:31.067Z,5.30
2018-06-20T23:45:59.384Z,5.50
2018-06-20T23:48:27.680Z,5.03
2018-06-20T23:50:55.996Z,5.40
2018-06-20T23:53:24.303Z,4.80
2018-06-20T23:55:52.625Z,4.87
2018-06-20T23:58:20.924Z,4.90
